createdAt,value
2017-11-21T00:00:08.850Z,10.93
2017-11-21T00:02:37.121Z,16.97
2017-11-21T00:05:05.404Z,12.67
2017-11-21T00:07:33.717Z,12.83
2017-11-21T00:10:02.051Z,13.90
2017-11-21T00:12:31.106Z,11.67
2017-11-21T00:14:59.455Z,12.70
2017-11-21T00:17:27.768Z,11.17
2017-11-21T00:19:56.063Z,12.30
2017-11-21T00:22:32.815Z,10.90
2017-11-21T00:25:01.103Z,11.80
2017-11-21T00:27:30.143Z,10.00
2017-11-21T00:29:58.492Z,10.50
2017-11-21T00:32:28.112Z,12.93
2017-11-21T00:34:56.363Z,9.37
2017-11-21T00:37:24.802Z,9.80
2017-11-21T00:39:53.939Z,9.23
2017-11-21T00:42:22.182Z,11.00
2017-11-21T00:44:50.517Z,8.40
2017-11-21T00:47:18.766Z,7.73
2017-11-21T00:49:47.809Z,10.70
2017-11-21T00:52:16.144Z,10.90
2017-11-21T00:54:44.416Z,10.60
2017-11-21T00:57:12.639Z,9.30
2017-11-21T00:59:40.926Z,10.70
2017-11-21T01:02:10.018Z,9.87
2017-11-21T01:04:38.336Z,8.83
2017-11-21T01:07:06.708Z,9.40
2017-11-21T01:09:34.956Z,10.53
2017-11-21T01:12:03.242Z,10.23
2017-11-21T01:14:31.499Z,13.00
2017-11-21T01:16:59.781Z,10.27
2017-11-21T01:19:28.035Z,15.57
2017-11-21T01:21:56.455Z,17.50
2017-11-21T01:24:24.722Z,14.40
2017-11-21T01:26:53.077Z,17.93
2017-11-21T01:29:21.345Z,23.00
2017-11-21T01:31:49.621Z,17.00
2017-11-21T01:34:18.926Z,16.97
2017-11-21T01:36:47.216Z,18.03
2017-11-21T01:39:15.613Z,21.00
2017-11-21T01:41:43.879Z,16.57
2017-11-21T01:44:12.151Z,16.53
2017-11-21T01:46:40.407Z,18.53
2017-11-21T01:49:08.683Z,16.03
2017-11-21T01:51:37.008Z,17.80
2017-11-21T01:54:05.326Z,13.83
2017-11-21T01:56:33.593Z,10.77
2017-11-21T01:59:01.865Z,11.10
2017-11-21T02:01:30.137Z,11.80
2017-11-21T02:03:58.407Z,12.33
2017-11-21T02:06:28.195Z,13.03
2017-11-21T02:08:56.450Z,14.10
2017-11-21T02:11:24.727Z,12.80
2017-11-21T02:13:52.978Z,11.47
2017-11-21T02:16:21.262Z,13.00
2017-11-21T02:18:49.583Z,14.87
2017-11-21T02:21:18.624Z,14.97
2017-11-21T02:23:46.965Z,15.70
2017-11-21T02:26:15.210Z,15.97
2017-11-21T02:28:45.225Z,15.90
2017-11-21T02:31:15.266Z,13.47
2017-11-21T02:33:43.586Z,14.97
2017-11-21T02:36:12.097Z,11.43
2017-11-21T02:38:40.377Z,10.73
2017-11-21T02:41:08.645Z,10.77
2017-11-21T02:43:36.982Z,12.30
2017-11-21T02:46:06.107Z,9.93
2017-11-21T02:48:34.509Z,10.73
2017-11-21T02:51:03.698Z,10.13
2017-11-21T02:53:31.950Z,8.87
2017-11-21T02:56:00.220Z,10.00
2017-11-21T02:58:29.398Z,10.37
2017-11-21T03:00:58.431Z,12.17
2017-11-21T03:03:26.709Z,12.30
2017-11-21T03:05:54.945Z,12.77
2017-11-21T03:08:23.226Z,13.03
2017-11-21T03:10:51.542Z,13.67
2017-11-21T03:13:19.811Z,15.57
2017-11-21T03:15:48.225Z,15.87
2017-11-21T03:18:16.510Z,14.40
2017-11-21T03:20:57.313Z,17.00
2017-11-21T03:23:37.343Z,18.73
2017-11-21T03:26:17.478Z,24.20
2017-11-21T03:28:45.879Z,27.60
2017-11-21T03:31:14.274Z,22.70
2017-11-21T03:33:42.810Z,24.60
2017-11-21T03:36:11.081Z,21.63
2017-11-21T03:38:40.894Z,22.47
2017-11-21T03:41:09.169Z,23.83
2017-11-21T03:43:37.466Z,25.63
2017-11-21T03:46:05.725Z,20.40
2017-11-21T03:48:34.306Z,21.90
2017-11-21T03:51:02.581Z,24.97
2017-11-21T03:53:30.858Z,24.73
2017-11-21T03:55:59.989Z,30.27
2017-11-21T03:58:28.260Z,24.57
2017-11-21T04:00:56.541Z,30.20
2017-11-21T04:03:24.860Z,25.90
2017-11-21T04:05:53.122Z,28.33
2017-11-21T04:08:21.445Z,31.43
2017-11-21T04:10:49.709Z,27.57
2017-11-21T04:13:17.999Z,28.57
2017-11-21T04:15:46.261Z,29.53
2017-11-21T04:18:14.571Z,32.20
2017-11-21T04:20:42.825Z,27.03
2017-11-21T04:23:11.078Z,27.70
2017-11-21T04:25:40.835Z,34.57
2017-11-21T04:28:09.112Z,29.07
2017-11-21T04:30:37.369Z,25.20
2017-11-21T04:33:05.649Z,25.20
2017-11-21T04:35:33.915Z,22.73
2017-11-21T04:38:02.195Z,18.07
2017-11-21T04:40:30.472Z,20.40
2017-11-21T04:42:58.737Z,21.17
2017-11-21T04:45:28.044Z,15.93
2017-11-21T04:47:56.452Z,13.63
2017-11-21T04:50:25.489Z,15.50
2017-11-21T04:52:53.785Z,9.50
2017-11-21T04:55:22.079Z,9.20
2017-11-21T04:57:51.110Z,7.23
2017-11-21T05:00:20.133Z,7.50
2017-11-21T05:02:48.460Z,6.17
2017-11-21T05:05:16.711Z,5.57
2017-11-21T05:07:45.013Z,4.70
2017-11-21T05:10:13.263Z,5.37
2017-11-21T05:12:41.493Z,6.77
2017-11-21T05:15:09.753Z,6.93
2017-11-21T05:17:38.022Z,6.87
2017-11-21T05:20:07.034Z,13.43
2017-11-21T05:22:35.298Z,11.33
2017-11-21T05:25:03.597Z,14.13
2017-11-21T05:27:31.882Z,18.63
2017-11-21T05:30:00.150Z,18.07
2017-11-21T05:32:40.075Z,20.17
2017-11-21T05:35:08.442Z,20.70
2017-11-21T05:37:36.682Z,23.37
2017-11-21T05:40:05.011Z,25.70
2017-11-21T05:42:33.271Z,25.40
2017-11-21T05:45:01.518Z,33.40
2017-11-21T05:47:29.798Z,27.40
2017-11-21T05:49:58.053Z,26.93
2017-11-21T05:52:26.314Z,32.23
2017-11-21T05:54:55.523Z,35.70
2017-11-21T05:57:23.792Z,30.87
2017-11-21T05:59:52.050Z,25.30
2017-11-21T06:02:20.359Z,27.37
2017-11-21T06:04:48.638Z,29.23
2017-11-21T06:07:17.081Z,24.03
2017-11-21T06:09:45.370Z,25.73
2017-11-21T06:12:13.815Z,30.43
2017-11-21T06:14:42.666Z,28.13
2017-11-21T06:17:10.945Z,26.63
2017-11-21T06:19:39.208Z,26.10
2017-11-21T06:22:07.461Z,24.07
2017-11-21T06:24:35.757Z,24.50
2017-11-21T06:27:04.023Z,27.20
2017-11-21T06:29:32.281Z,25.60
2017-11-21T06:32:00.698Z,25.30
2017-11-21T06:34:28.973Z,22.67
2017-11-21T06:36:58.828Z,24.03
2017-11-21T06:39:27.120Z,24.27
2017-11-21T06:41:55.365Z,23.50
2017-11-21T06:44:23.666Z,22.57
2017-11-21T06:46:51.926Z,24.57
2017-11-21T06:49:20.178Z,26.97
2017-11-21T06:51:48.471Z,22.90
2017-11-21T06:54:17.708Z,23.00
2017-11-21T06:56:46.167Z,24.93
2017-11-21T06:59:15.225Z,21.70
2017-11-21T07:01:43.503Z,22.90
2017-11-21T07:04:11.831Z,18.93
2017-11-21T07:06:40.787Z,22.33
2017-11-21T07:09:09.063Z,19.83
2017-11-21T07:11:38.133Z,26.57
2017-11-21T07:14:06.410Z,27.80
2017-11-21T07:16:34.737Z,21.03
2017-11-21T07:19:03.778Z,20.93
2017-11-21T07:21:32.665Z,20.37
2017-11-21T07:24:00.958Z,21.07
2017-11-21T07:26:29.347Z,17.10
2017-11-21T07:28:57.582Z,16.00
2017-11-21T07:31:25.883Z,16.87
2017-11-21T07:33:55.171Z,18.70
2017-11-21T07:36:23.974Z,17.83
2017-11-21T07:38:52.238Z,17.07
2017-11-21T07:41:20.522Z,14.90
2017-11-21T07:43:48.816Z,13.60
2017-11-21T07:46:17.091Z,15.90
2017-11-21T07:48:45.408Z,19.13
2017-11-21T07:51:13.668Z,18.80
2017-11-21T07:53:41.931Z,16.13
2017-11-21T07:56:10.436Z,15.00
2017-11-21T07:58:38.670Z,15.30
2017-11-21T08:01:07.023Z,13.80
2017-11-21T08:03:35.301Z,14.70
2017-11-21T08:06:03.578Z,9.70
2017-11-21T08:08:31.822Z,12.50
2017-11-21T08:11:01.025Z,10.93
2017-11-21T08:13:30.153Z,10.30
2017-11-21T08:16:06.396Z,8.77
2017-11-21T08:18:49.795Z,9.20
2017-11-21T08:21:18.242Z,8.63
2017-11-21T08:23:46.492Z,8.77
2017-11-21T08:26:14.935Z,7.73
2017-11-21T08:28:43.221Z,7.77
2017-11-21T08:31:11.472Z,7.37
2017-11-21T08:33:39.765Z,8.33
2017-11-21T08:36:08.119Z,6.40
2017-11-21T08:38:36.610Z,6.53
2017-11-21T08:41:04.998Z,5.80
2017-11-21T08:43:34.029Z,6.97
2017-11-21T08:46:02.344Z,6.03
2017-11-21T08:48:30.857Z,9.80
2017-11-21T08:50:59.271Z,6.33
2017-11-21T08:53:28.409Z,7.70
2017-11-21T08:55:56.858Z,5.07
2017-11-21T08:58:25.193Z,3.60
2017-11-21T09:00:53.464Z,7.53
2017-11-21T09:03:22.507Z,3.67
2017-11-21T09:05:50.769Z,2.87
2017-11-21T09:08:19.078Z,4.80
2017-11-21T09:10:48.235Z,2.93
2017-11-21T09:13:16.519Z,4.43
2017-11-21T09:15:44.775Z,3.10
2017-11-21T09:18:13.200Z,6.20
2017-11-21T09:20:41.523Z,4.00
2017-11-21T09:23:09.787Z,5.63
2017-11-21T09:25:38.067Z,8.30
2017-11-21T09:28:06.353Z,5.70
2017-11-21T09:30:37.147Z,3.90
2017-11-21T09:33:05.438Z,3.00
2017-11-21T09:35:34.582Z,4.10
2017-11-21T09:38:03.637Z,3.50
2017-11-21T09:40:32.228Z,2.50
2017-11-21T09:43:00.538Z,5.20
2017-11-21T09:45:28.874Z,3.03
2017-11-21T09:47:57.164Z,2.63
2017-11-21T09:50:25.412Z,2.90
2017-11-21T09:52:53.693Z,4.03
2017-11-21T09:55:23.593Z,2.23
2017-11-21T09:57:51.859Z,4.17
2017-11-21T10:00:21.089Z,3.43
2017-11-21T10:02:50.324Z,2.80
2017-11-21T10:05:19.505Z,1.77
2017-11-21T10:07:48.959Z,1.93
2017-11-21T10:10:17.222Z,2.50
2017-11-21T10:12:45.667Z,1.90
2017-11-21T10:15:14.045Z,9.73
2017-11-21T10:17:42.319Z,2.23
2017-11-21T10:20:11.345Z,2.47
2017-11-21T10:22:39.634Z,2.03
2017-11-21T10:25:07.902Z,1.97
2017-11-21T10:27:36.190Z,2.80
2017-11-21T10:30:04.455Z,3.57
2017-11-21T10:32:33.002Z,5.10
2017-11-21T10:35:01.255Z,2.20
2017-11-21T10:37:29.574Z,3.43
2017-11-21T10:39:57.822Z,4.10
2017-11-21T10:42:26.940Z,2.30
2017-11-21T10:44:55.207Z,2.37
2017-11-21T10:47:24.233Z,2.50
2017-11-21T10:49:52.626Z,2.20
2017-11-21T10:52:20.891Z,2.30
2017-11-21T10:54:49.310Z,2.50
2017-11-21T10:57:18.358Z,3.17
2017-11-21T10:59:48.105Z,2.30
2017-11-21T11:02:16.375Z,5.60
2017-11-21T11:04:44.899Z,2.57
2017-11-21T11:07:13.164Z,2.60
2017-11-21T11:09:41.473Z,2.47
2017-11-21T11:12:09.932Z,2.90
2017-11-21T11:14:38.982Z,3.73
2017-11-21T11:17:07.302Z,4.00
2017-11-21T11:19:36.828Z,4.37
2017-11-21T11:22:05.887Z,8.00
2017-11-21T11:24:34.209Z,5.13
2017-11-21T11:27:03.263Z,5.13
2017-11-21T11:29:32.329Z,7.10
2017-11-21T11:32:00.674Z,9.60
2017-11-21T11:34:28.930Z,7.70
2017-11-21T11:36:57.172Z,6.47
2017-11-21T11:39:25.461Z,7.33
2017-11-21T11:41:55.243Z,7.83
2017-11-21T11:44:23.514Z,8.40
2017-11-21T11:46:51.791Z,8.33
2017-11-21T11:49:20.075Z,6.83
2017-11-21T11:51:48.322Z,8.33
2017-11-21T11:54:16.641Z,8.23
2017-11-21T11:56:45.218Z,9.90
2017-11-21T11:59:13.678Z,7.97
2017-11-21T12:01:41.962Z,7.83
2017-11-21T12:04:10.254Z,7.97
2017-11-21T12:06:38.572Z,7.33
2017-11-21T12:09:06.873Z,7.10
2017-11-21T12:11:35.590Z,6.97
2017-11-21T12:14:03.899Z,5.63
2017-11-21T12:16:32.960Z,6.07
2017-11-21T12:19:01.280Z,5.60
2017-11-21T12:21:29.538Z,6.40
2017-11-21T12:23:57.938Z,6.50
2017-11-21T12:26:26.227Z,5.77
2017-11-21T12:28:54.500Z,7.97
2017-11-21T12:31:24.977Z,4.63
2017-11-21T12:33:53.487Z,5.70
2017-11-21T12:36:21.731Z,5.37
2017-11-21T12:38:49.986Z,4.77
2017-11-21T12:41:18.270Z,4.60
2017-11-21T12:43:46.559Z,5.10
2017-11-21T12:46:14.870Z,5.40
2017-11-21T12:48:43.145Z,5.67
2017-11-21T12:51:11.440Z,4.27
2017-11-21T12:53:39.721Z,5.23
2017-11-21T12:56:08.005Z,4.90
2017-11-21T12:58:36.334Z,4.23
2017-11-21T13:01:04.741Z,4.30
2017-11-21T13:03:33.034Z,4.33
2017-11-21T13:06:01.348Z,3.37
2017-11-21T13:08:29.632Z,5.87
2017-11-21T13:11:00.097Z,3.10
2017-11-21T13:13:28.370Z,3.50
2017-11-21T13:15:56.676Z,4.60
2017-11-21T13:18:24.970Z,3.20
2017-11-21T13:20:53.288Z,3.40
2017-11-21T13:23:21.562Z,3.63
2017-11-21T13:25:49.865Z,4.03
2017-11-21T13:28:18.168Z,3.37
2017-11-21T13:30:46.492Z,3.80
2017-11-21T13:33:14.825Z,4.47
2017-11-21T13:35:43.103Z,4.00
2017-11-21T13:38:11.474Z,4.43
2017-11-21T13:40:39.745Z,5.03
2017-11-21T13:43:08.961Z,4.60
2017-11-21T13:45:37.496Z,6.50
2017-11-21T13:48:06.574Z,10.10
2017-11-21T13:50:34.887Z,5.27
2017-11-21T13:53:03.222Z,4.43
2017-11-21T13:55:32.374Z,5.30
2017-11-21T13:58:00.760Z,4.10
2017-11-21T14:00:29.037Z,4.90
2017-11-21T14:02:57.317Z,4.63
2017-11-21T14:05:27.254Z,4.80
2017-11-21T14:07:55.704Z,5.13
2017-11-21T14:10:24.048Z,5.60
2017-11-21T14:12:52.295Z,5.97
2017-11-21T14:15:21.604Z,6.63
2017-11-21T14:17:50.010Z,8.57
2017-11-21T14:20:19.131Z,6.30
2017-11-21T14:22:47.696Z,6.90
2017-11-21T14:25:15.951Z,6.60
2017-11-21T14:27:45.154Z,7.80
2017-11-21T14:30:13.536Z,7.30
2017-11-21T14:32:42.336Z,6.00
2017-11-21T14:35:10.654Z,6.20
2017-11-21T14:37:39.377Z,5.77
2017-11-21T14:40:08.581Z,6.27
2017-11-21T14:42:36.861Z,6.63
2017-11-21T14:45:05.905Z,6.17
2017-11-21T14:47:34.216Z,6.50
2017-11-21T14:50:02.528Z,6.97
2017-11-21T14:52:30.815Z,6.73
2017-11-21T14:54:59.976Z,7.87
2017-11-21T14:57:29.222Z,9.30
2017-11-21T14:59:58.388Z,9.00
2017-11-21T15:02:27.461Z,9.20
2017-11-21T15:04:55.814Z,8.63
2017-11-21T15:07:24.143Z,9.43
2017-11-21T15:09:52.442Z,10.17
2017-11-21T15:12:20.726Z,9.33
2017-11-21T15:14:49.987Z,11.53
2017-11-21T15:17:19.115Z,9.70
2017-11-21T15:19:47.407Z,9.43
2017-11-21T15:22:16.158Z,10.10
2017-11-21T15:24:45.211Z,10.43
2017-11-21T15:27:13.500Z,11.33
2017-11-21T15:29:42.585Z,10.43
2017-11-21T15:32:11.160Z,11.03
2017-11-21T15:34:39.464Z,10.13
2017-11-21T15:37:07.876Z,9.80
2017-11-21T15:39:37.048Z,10.93
2017-11-21T15:42:05.442Z,12.00
2017-11-21T15:44:33.761Z,10.43
2017-11-21T15:47:02.052Z,12.13
2017-11-21T15:49:30.365Z,10.63
2017-11-21T15:51:58.831Z,11.20
2017-11-21T15:54:27.149Z,13.57
2017-11-21T15:56:56.364Z,17.90
2017-11-21T15:59:24.683Z,12.37
2017-11-21T16:01:53.000Z,11.80
2017-11-21T16:04:21.280Z,12.40
2017-11-21T16:06:49.542Z,11.67
2017-11-21T16:09:18.609Z,14.20
2017-11-21T16:11:46.904Z,13.73
2017-11-21T16:14:15.959Z,16.33
2017-11-21T16:16:44.221Z,17.27
2017-11-21T16:19:12.550Z,16.77
2017-11-21T16:21:41.662Z,16.37
2017-11-21T16:24:10.800Z,14.37
2017-11-21T16:26:40.066Z,13.73
2017-11-21T16:29:08.610Z,16.17
2017-11-21T16:31:37.828Z,13.90
2017-11-21T16:34:09.035Z,15.00
2017-11-21T16:36:37.323Z,15.20
2017-11-21T16:39:05.618Z,17.17
2017-11-21T16:41:33.964Z,13.60
2017-11-21T16:44:02.258Z,13.07
2017-11-21T16:46:32.285Z,13.93
2017-11-21T16:49:01.537Z,16.13
2017-11-21T16:51:30.119Z,17.20
2017-11-21T16:53:58.397Z,13.00
2017-11-21T16:56:26.820Z,14.95
2017-11-21T16:58:55.926Z,15.07
2017-11-21T17:01:25.062Z,13.73
2017-11-21T17:03:53.452Z,15.10
2017-11-21T17:06:21.704Z,15.70
2017-11-21T17:08:51.269Z,11.13
2017-11-21T17:11:19.578Z,12.80
2017-11-21T17:13:47.845Z,12.53
2017-11-21T17:16:16.107Z,15.10
2017-11-21T17:18:45.894Z,17.50
2017-11-21T17:21:15.011Z,12.00
2017-11-21T17:23:43.602Z,12.53
2017-11-21T17:26:12.067Z,13.10
2017-11-21T17:28:42.903Z,15.60
2017-11-21T17:31:11.251Z,15.03
2017-11-21T17:33:39.554Z,13.97
2017-11-21T17:36:07.812Z,13.23
2017-11-21T17:38:36.089Z,16.47
2017-11-21T17:41:04.404Z,16.40
2017-11-21T17:43:33.485Z,16.83
2017-11-21T17:46:01.741Z,13.27
2017-11-21T17:48:30.039Z,17.50
2017-11-21T17:50:59.868Z,16.23
2017-11-21T17:53:28.977Z,16.20
2017-11-21T17:55:58.008Z,15.57
2017-11-21T17:58:26.322Z,14.47
2017-11-21T18:00:54.600Z,16.80
2017-11-21T18:03:23.662Z,14.07
2017-11-21T18:05:52.850Z,18.67
2017-11-21T18:08:21.149Z,17.33
2017-11-21T18:10:49.447Z,15.30
2017-11-21T18:13:18.475Z,13.00
2017-11-21T18:15:46.805Z,16.57
2017-11-21T18:18:15.070Z,15.87
2017-11-21T18:20:43.371Z,18.73
2017-11-21T18:23:11.690Z,16.03
2017-11-21T18:25:40.008Z,15.10
2017-11-21T18:28:08.302Z,23.27
2017-11-21T18:30:37.558Z,15.03
2017-11-21T18:33:05.820Z,18.90
2017-11-21T18:35:34.085Z,21.07
2017-11-21T18:38:02.394Z,15.83
2017-11-21T18:40:30.669Z,14.63
2017-11-21T18:43:00.101Z,15.50
2017-11-21T18:45:28.392Z,16.97
2017-11-21T18:47:56.705Z,15.50
2017-11-21T18:50:26.908Z,14.73
2017-11-21T18:52:56.039Z,17.83
2017-11-21T18:55:24.353Z,16.37
2017-11-21T18:57:53.670Z,12.50
2017-11-21T19:00:21.951Z,13.60
2017-11-21T19:02:50.287Z,18.43
2017-11-21T19:05:19.431Z,18.17
2017-11-21T19:07:48.859Z,17.60
2017-11-21T19:10:17.166Z,18.30
2017-11-21T19:12:45.566Z,16.23
2017-11-21T19:15:13.879Z,15.73
2017-11-21T19:17:42.176Z,31.83
2017-11-21T19:20:10.801Z,19.80
2017-11-21T19:22:39.109Z,15.83
2017-11-21T19:25:07.391Z,18.53
2017-11-21T19:27:35.655Z,14.57
2017-11-21T19:30:03.949Z,16.30
2017-11-21T19:32:32.445Z,18.03
2017-11-21T19:35:00.750Z,14.37
2017-11-21T19:37:29.087Z,12.80
2017-11-21T19:39:57.388Z,14.60
2017-11-21T19:42:25.694Z,15.33
2017-11-21T19:44:55.520Z,15.10
2017-11-21T19:47:23.858Z,19.30
2017-11-21T19:49:53.817Z,17.17
2017-11-21T19:52:23.599Z,12.77
2017-11-21T19:54:51.912Z,17.53
2017-11-21T19:57:20.948Z,20.87
2017-11-21T19:59:53.464Z,14.67
2017-11-21T20:02:21.780Z,15.90
2017-11-21T20:04:50.356Z,16.27
2017-11-21T20:07:18.661Z,17.53
2017-11-21T20:09:46.938Z,14.23
2017-11-21T20:12:15.236Z,19.20
2017-11-21T20:14:43.540Z,14.60
2017-11-21T20:17:12.583Z,13.90
2017-11-21T20:19:40.867Z,11.60
2017-11-21T20:22:09.570Z,12.07
2017-11-21T20:24:37.838Z,11.83
2017-11-21T20:27:06.104Z,15.80
2017-11-21T20:29:34.418Z,11.27
2017-11-21T20:32:02.721Z,12.33
2017-11-21T20:34:31.023Z,14.23
2017-11-21T20:36:59.298Z,14.63
2017-11-21T20:39:27.655Z,17.90
2017-11-21T20:41:56.879Z,11.50
2017-11-21T20:44:26.051Z,12.90
2017-11-21T20:46:54.351Z,10.90
2017-11-21T20:49:22.698Z,12.20
2017-11-21T20:51:50.958Z,12.07
2017-11-21T20:54:19.257Z,10.50
2017-11-21T20:56:47.519Z,12.77
2017-11-21T20:59:15.815Z,12.73
2017-11-21T21:01:44.114Z,11.87
2017-11-21T21:04:13.244Z,10.37
2017-11-21T21:06:41.530Z,13.70
2017-11-21T21:09:09.795Z,10.70
2017-11-21T21:11:38.134Z,16.53
2017-11-21T21:14:07.278Z,12.50
2017-11-21T21:16:35.684Z,14.33
2017-11-21T21:19:04.018Z,12.53
2017-11-21T21:21:32.350Z,15.80
2017-11-21T21:24:00.659Z,10.70
2017-11-21T21:26:28.969Z,13.57
2017-11-21T21:28:57.723Z,15.00
2017-11-21T21:31:26.047Z,12.50
2017-11-21T21:33:55.142Z,11.17
2017-11-21T21:36:24.199Z,14.87
2017-11-21T21:38:53.315Z,11.33
2017-11-21T21:41:21.627Z,13.00
2017-11-21T21:43:49.848Z,11.03
2017-11-21T21:46:18.303Z,15.30
2017-11-21T21:48:47.555Z,12.53
2017-11-21T21:51:15.833Z,12.37
2017-11-21T21:53:44.153Z,20.23
2017-11-21T21:56:12.478Z,11.60
2017-11-21T21:58:40.911Z,10.47
2017-11-21T22:01:09.182Z,11.60
2017-11-21T22:03:37.470Z,12.30
2017-11-21T22:06:05.802Z,12.00
2017-11-21T22:08:35.478Z,14.23
2017-11-21T22:11:03.828Z,10.73
2017-11-21T22:13:32.154Z,11.10
2017-11-21T22:16:00.406Z,10.30
2017-11-21T22:18:28.749Z,10.57
2017-11-21T22:20:57.016Z,10.37
2017-11-21T22:23:25.287Z,12.30
2017-11-21T22:25:53.730Z,10.33
2017-11-21T22:28:22.265Z,9.00
2017-11-21T22:30:50.563Z,9.07
2017-11-21T22:33:18.882Z,10.23
2017-11-21T22:35:47.971Z,11.27
2017-11-21T22:38:16.275Z,9.40
2017-11-21T22:40:45.307Z,10.10
2017-11-21T22:43:13.606Z,9.90
2017-11-21T22:45:42.716Z,8.87
2017-11-21T22:48:10.947Z,9.80
2017-11-21T22:50:40.174Z,8.53
2017-11-21T22:53:08.439Z,12.30
2017-11-21T22:55:36.706Z,9.87
2017-11-21T22:58:04.974Z,8.73
2017-11-21T23:00:33.248Z,10.23
2017-11-21T23:03:01.686Z,9.07
2017-11-21T23:05:29.978Z,14.57
2017-11-21T23:07:58.237Z,9.13
2017-11-21T23:10:26.501Z,10.47
2017-11-21T23:12:55.761Z,12.77
2017-11-21T23:15:24.967Z,13.47
2017-11-21T23:17:54.026Z,11.43
2017-11-21T23:20:22.280Z,8.00
2017-11-21T23:22:50.586Z,8.60
2017-11-21T23:25:18.885Z,8.60
2017-11-21T23:27:47.143Z,8.80
2017-11-21T23:30:15.414Z,8.00
2017-11-21T23:32:43.749Z,8.90
2017-11-21T23:35:12.779Z,8.90
2017-11-21T23:37:41.145Z,7.43
2017-11-21T23:40:09.563Z,9.43
2017-11-21T23:42:39.366Z,10.57
2017-11-21T23:45:07.638Z,8.97
2017-11-21T23:47:36.115Z,7.70
2017-11-21T23:50:04.490Z,8.43
2017-11-21T23:52:32.775Z,9.73
2017-11-21T23:55:01.149Z,13.37
2017-11-21T23:57:29.665Z,10.53
2017-11-21T23:59:58.141Z,8.13
